sensor_id;sensor_type;location;lat;lon;timestamp;P1;durP1;ratioP1;P2;durP2;ratioP2
39890;SDS011;25564;53.312;9.790;2023-07-28T00:02:15;1.48;;;0.88;;
39890;SDS011;25564;53.312;9.790;2023-07-28T00:04:47;1.08;;;0.68;;
39890;SDS011;25564;53.312;9.790;2023-07-28T00:07:18;1.88;;;1.02;;
39890;SDS011;25564;53.312;9.790;2023-07-28T00:09:49;1.98;;;0.88;;
39890;SDS011;25564;53.312;9.790;2023-07-28T00:12:21;2.13;;;1.10;;
39890;SDS011;25564;53.312;9.790;2023-07-28T00:14:53;3.08;;;1.00;;
39890;SDS011;25564;53.312;9.790;2023-07-28T00:17:24;2.92;;;1.63;;
39890;SDS011;25564;53.312;9.790;2023-07-28T00:19:56;2.08;;;1.02;;
39890;SDS011;25564;53.312;9.790;2023-07-28T00:22:27;4.63;;;1.33;;
39890;SDS011;25564;53.312;9.790;2023-07-28T00:24:59;2.63;;;1.42;;
39890;SDS011;25564;53.312;9.790;2023-07-28T00:27:30;3.63;;;1.23;;
39890;SDS011;25564;53.312;9.790;2023-07-28T00:30:02;2.15;;;1.30;;
39890;SDS011;25564;53.312;9.790;2023-07-28T00:32:33;2.17;;;1.25;;
39890;SDS011;25564;53.312;9.790;2023-07-28T00:35:05;2.95;;;1.48;;
39890;SDS011;25564;53.312;9.790;2023-07-28T00:37:37;2.17;;;1.23;;
39890;SDS011;25564;53.312;9.790;2023-07-28T00:40:08;2.17;;;1.20;;
39890;SDS011;25564;53.312;9.790;2023-07-28T00:42:40;2.00;;;1.17;;
39890;SDS011;25564;53.312;9.790;2023-07-28T00:45:12;1.90;;;1.27;;
39890;SDS011;25564;53.312;9.790;2023-07-28T00:47:43;2.67;;;1.00;;
39890;SDS011;25564;53.312;9.790;2023-07-28T00:50:15;1.88;;;1.15;;
39890;SDS011;25564;53.312;9.790;2023-07-28T00:52:47;2.70;;;1.38;;
39890;SDS011;25564;53.312;9.790;2023-07-28T00:55:20;2.40;;;1.05;;
39890;SDS011;25564;53.312;9.790;2023-07-28T00:57:53;1.67;;;0.98;;
39890;SDS011;25564;53.312;9.790;2023-07-28T01:00:24;4.03;;;1.50;;
39890;SDS011;25564;53.312;9.790;2023-07-28T01:02:56;1.83;;;1.13;;
39890;SDS011;25564;53.312;9.790;2023-07-28T01:05:30;3.63;;;1.30;;
39890;SDS011;25564;53.312;9.790;2023-07-28T01:08:11;1.73;;;1.10;;
39890;SDS011;25564;53.312;9.790;2023-07-28T01:10:50;3.35;;;1.35;;
39890;SDS011;25564;53.312;9.790;2023-07-28T01:13:22;2.00;;;1.20;;
39890;SDS011;25564;53.312;9.790;2023-07-28T01:15:53;2.28;;;1.30;;
39890;SDS011;25564;53.312;9.790;2023-07-28T01:18:25;4.95;;;1.65;;
39890;SDS011;25564;53.312;9.790;2023-07-28T01:20:56;3.05;;;1.52;;
39890;SDS011;25564;53.312;9.790;2023-07-28T01:26:46;3.05;;;1.70;;
39890;SDS011;25564;53.312;9.790;2023-07-28T01:29:19;3.85;;;1.65;;
39890;SDS011;25564;53.312;9.790;2023-07-28T01:31:52;3.42;;;1.40;;
39890;SDS011;25564;53.312;9.790;2023-07-28T01:34:24;2.65;;;1.70;;
39890;SDS011;25564;53.312;9.790;2023-07-28T01:36:55;3.20;;;1.65;;
39890;SDS011;25564;53.312;9.790;2023-07-28T01:39:26;3.92;;;1.90;;
39890;SDS011;25564;53.312;9.790;2023-07-28T01:41:58;3.10;;;1.92;;
39890;SDS011;25564;53.312;9.790;2023-07-28T01:44:29;4.03;;;1.77;;
39890;SDS011;25564;53.312;9.790;2023-07-28T01:47:01;2.45;;;1.65;;
39890;SDS011;25564;53.312;9.790;2023-07-28T01:49:32;2.55;;;1.45;;
39890;SDS011;25564;53.312;9.790;2023-07-28T01:52:03;2.70;;;1.35;;
39890;SDS011;25564;53.312;9.790;2023-07-28T01:54:35;2.67;;;1.65;;
39890;SDS011;25564;53.312;9.790;2023-07-28T01:57:07;3.58;;;1.70;;
39890;SDS011;25564;53.312;9.790;2023-07-28T01:59:38;6.22;;;1.38;;
39890;SDS011;25564;53.312;9.790;2023-07-28T02:02:10;2.90;;;1.55;;
39890;SDS011;25564;53.312;9.790;2023-07-28T02:04:41;5.43;;;1.52;;
39890;SDS011;25564;53.312;9.790;2023-07-28T02:07:12;2.88;;;1.40;;
39890;SDS011;25564;53.312;9.790;2023-07-28T02:09:44;7.15;;;2.10;;
39890;SDS011;25564;53.312;9.790;2023-07-28T02:12:15;2.50;;;1.52;;
39890;SDS011;25564;53.312;9.790;2023-07-28T02:14:47;4.85;;;1.58;;
39890;SDS011;25564;53.312;9.790;2023-07-28T02:17:18;5.22;;;2.00;;
39890;SDS011;25564;53.312;9.790;2023-07-28T02:19:49;3.45;;;1.98;;
39890;SDS011;25564;53.312;9.790;2023-07-28T02:22:21;2.47;;;1.50;;
39890;SDS011;25564;53.312;9.790;2023-07-28T02:24:52;3.65;;;1.70;;
39890;SDS011;25564;53.312;9.790;2023-07-28T02:27:24;3.33;;;1.60;;
39890;SDS011;25564;53.312;9.790;2023-07-28T02:29:55;2.80;;;1.50;;
39890;SDS011;25564;53.312;9.790;2023-07-28T02:32:27;3.63;;;1.70;;
39890;SDS011;25564;53.312;9.790;2023-07-28T02:35:00;3.25;;;1.52;;
39890;SDS011;25564;53.312;9.790;2023-07-28T02:37:31;4.28;;;1.60;;
39890;SDS011;25564;53.312;9.790;2023-07-28T02:40:03;2.08;;;1.30;;
39890;SDS011;25564;53.312;9.790;2023-07-28T02:42:35;2.50;;;1.40;;
39890;SDS011;25564;53.312;9.790;2023-07-28T02:45:07;2.95;;;1.65;;
39890;SDS011;25564;53.312;9.790;2023-07-28T02:47:41;3.40;;;1.77;;
39890;SDS011;25564;53.312;9.790;2023-07-28T02:50:13;2.40;;;1.42;;
39890;SDS011;25564;53.312;9.790;2023-07-28T02:52:44;4.35;;;2.08;;
39890;SDS011;25564;53.312;9.790;2023-07-28T02:55:16;3.38;;;2.00;;
39890;SDS011;25564;53.312;9.790;2023-07-28T02:57:47;5.07;;;2.22;;
39890;SDS011;25564;53.312;9.790;2023-07-28T03:00:18;5.55;;;2.40;;
39890;SDS011;25564;53.312;9.790;2023-07-28T03:02:50;5.15;;;2.15;;
39890;SDS011;25564;53.312;9.790;2023-07-28T03:05:21;4.15;;;2.17;;
39890;SDS011;25564;53.312;9.790;2023-07-28T03:07:53;4.50;;;2.42;;
39890;SDS011;25564;53.312;9.790;2023-07-28T03:10:25;7.57;;;2.00;;
39890;SDS011;25564;53.312;9.790;2023-07-28T03:12:57;5.75;;;2.40;;
39890;SDS011;25564;53.312;9.790;2023-07-28T03:15:28;5.35;;;2.53;;
39890;SDS011;25564;53.312;9.790;2023-07-28T03:18:00;6.75;;;2.75;;
39890;SDS011;25564;53.312;9.790;2023-07-28T03:20:32;5.07;;;2.70;;
39890;SDS011;25564;53.312;9.790;2023-07-28T03:23:03;4.43;;;2.70;;
39890;SDS011;25564;53.312;9.790;2023-07-28T03:25:34;5.80;;;2.35;;
39890;SDS011;25564;53.312;9.790;2023-07-28T03:28:06;4.90;;;2.33;;
39890;SDS011;25564;53.312;9.790;2023-07-28T03:30:37;6.80;;;2.90;;
39890;SDS011;25564;53.312;9.790;2023-07-28T03:33:09;11.07;;;3.08;;
39890;SDS011;25564;53.312;9.790;2023-07-28T03:35:40;7.07;;;3.20;;
39890;SDS011;25564;53.312;9.790;2023-07-28T03:38:12;6.72;;;3.10;;
39890;SDS011;25564;53.312;9.790;2023-07-28T03:40:43;6.32;;;3.22;;
39890;SDS011;25564;53.312;9.790;2023-07-28T03:43:15;5.05;;;2.50;;
39890;SDS011;25564;53.312;9.790;2023-07-28T03:45:46;7.28;;;2.80;;
39890;SDS011;25564;53.312;9.790;2023-07-28T03:48:18;8.82;;;3.45;;
39890;SDS011;25564;53.312;9.790;2023-07-28T03:50:49;7.53;;;3.35;;
39890;SDS011;25564;53.312;9.790;2023-07-28T03:53:21;9.05;;;3.38;;
39890;SDS011;25564;53.312;9.790;2023-07-28T03:55:52;8.63;;;4.05;;
39890;SDS011;25564;53.312;9.790;2023-07-28T03:58:28;10.57;;;4.30;;
39890;SDS011;25564;53.312;9.790;2023-07-28T04:01:00;10.35;;;4.05;;
39890;SDS011;25564;53.312;9.790;2023-07-28T04:03:32;10.85;;;4.75;;
39890;SDS011;25564;53.312;9.790;2023-07-28T04:06:09;10.57;;;5.15;;
39890;SDS011;25564;53.312;9.790;2023-07-28T04:08:42;11.98;;;4.22;;
39890;SDS011;25564;53.312;9.790;2023-07-28T04:11:13;11.63;;;4.15;;
39890;SDS011;25564;53.312;9.790;2023-07-28T04:13:45;12.57;;;5.20;;
39890;SDS011;25564;53.312;9.790;2023-07-28T04:16:16;12.52;;;4.90;;
39890;SDS011;25564;53.312;9.790;2023-07-28T04:18:48;15.90;;;4.90;;
39890;SDS011;25564;53.312;9.790;2023-07-28T04:21:19;11.57;;;4.22;;
39890;SDS011;25564;53.312;9.790;2023-07-28T04:23:51;11.43;;;4.47;;
39890;SDS011;25564;53.312;9.790;2023-07-28T04:26:23;8.93;;;3.17;;
39890;SDS011;25564;53.312;9.790;2023-07-28T04:28:55;8.95;;;3.50;;
39890;SDS011;25564;53.312;9.790;2023-07-28T04:31:27;3.50;;;2.17;;
39890;SDS011;25564;53.312;9.790;2023-07-28T04:33:58;3.38;;;1.92;;
39890;SDS011;25564;53.312;9.790;2023-07-28T04:36:31;3.25;;;1.52;;
39890;SDS011;25564;53.312;9.790;2023-07-28T04:39:03;3.10;;;1.17;;
39890;SDS011;25564;53.312;9.790;2023-07-28T04:41:34;1.75;;;0.90;;
39890;SDS011;25564;53.312;9.790;2023-07-28T04:44:06;3.38;;;1.30;;
39890;SDS011;25564;53.312;9.790;2023-07-28T04:46:37;2.75;;;1.15;;
39890;SDS011;25564;53.312;9.790;2023-07-28T04:49:09;1.85;;;1.00;;
39890;SDS011;25564;53.312;9.790;2023-07-28T04:51:40;3.13;;;0.93;;
39890;SDS011;25564;53.312;9.790;2023-07-28T04:54:11;1.88;;;0.80;;
39890;SDS011;25564;53.312;9.790;2023-07-28T04:56:43;1.08;;;0.60;;
39890;SDS011;25564;53.312;9.790;2023-07-28T04:59:14;0.88;;;0.80;;
39890;SDS011;25564;53.312;9.790;2023-07-28T05:01:46;2.30;;;0.88;;
39890;SDS011;25564;53.312;9.790;2023-07-28T05:04:18;1.15;;;0.70;;
39890;SDS011;25564;53.312;9.790;2023-07-28T05:06:50;0.63;;;0.40;;
39890;SDS011;25564;53.312;9.790;2023-07-28T05:09:21;1.48;;;0.55;;
39890;SDS011;25564;53.312;9.790;2023-07-28T05:11:53;1.38;;;0.50;;
39890;SDS011;25564;53.312;9.790;2023-07-28T05:14:24;4.57;;;0.60;;
39890;SDS011;25564;53.312;9.790;2023-07-28T05:16:56;0.98;;;0.60;;
39890;SDS011;25564;53.312;9.790;2023-07-28T05:19:27;2.75;;;0.60;;
39890;SDS011;25564;53.312;9.790;2023-07-28T05:21:59;1.33;;;0.60;;
39890;SDS011;25564;53.312;9.790;2023-07-28T05:24:30;3.33;;;0.68;;
39890;SDS011;25564;53.312;9.790;2023-07-28T05:27:02;1.58;;;0.68;;
39890;SDS011;25564;53.312;9.790;2023-07-28T05:29:33;0.47;;;0.40;;
39890;SDS011;25564;53.312;9.790;2023-07-28T05:32:05;1.35;;;0.50;;
39890;SDS011;25564;53.312;9.790;2023-07-28T05:34:37;0.70;;;0.32;;
39890;SDS011;25564;53.312;9.790;2023-07-28T05:37:09;3.90;;;0.60;;
39890;SDS011;25564;53.312;9.790;2023-07-28T05:39:40;1.38;;;0.52;;
39890;SDS011;25564;53.312;9.790;2023-07-28T05:42:12;0.60;;;0.40;;
39890;SDS011;25564;53.312;9.790;2023-07-28T05:44:43;1.85;;;0.77;;
39890;SDS011;25564;53.312;9.790;2023-07-28T05:47:15;1.00;;;0.70;;
39890;SDS011;25564;53.312;9.790;2023-07-28T05:49:46;1.58;;;0.80;;
39890;SDS011;25564;53.312;9.790;2023-07-28T05:52:18;1.15;;;0.60;;
39890;SDS011;25564;53.312;9.790;2023-07-28T05:54:49;2.95;;;1.10;;
39890;SDS011;25564;53.312;9.790;2023-07-28T05:57:20;3.15;;;0.90;;
39890;SDS011;25564;53.312;9.790;2023-07-28T05:59:52;3.00;;;1.00;;
39890;SDS011;25564;53.312;9.790;2023-07-28T06:02:23;2.85;;;1.65;;
39890;SDS011;25564;53.312;9.790;2023-07-28T06:04:55;3.10;;;1.75;;
39890;SDS011;25564;53.312;9.790;2023-07-28T06:07:26;2.38;;;1.30;;
39890;SDS011;25564;53.312;9.790;2023-07-28T06:09:58;3.75;;;1.83;;
39890;SDS011;25564;53.312;9.790;2023-07-28T06:12:30;6.47;;;2.08;;
39890;SDS011;25564;53.312;9.790;2023-07-28T06:15:02;4.45;;;2.70;;
39890;SDS011;25564;53.312;9.790;2023-07-28T06:17:34;3.45;;;2.15;;
39890;SDS011;25564;53.312;9.790;2023-07-28T06:20:05;3.03;;;2.15;;
39890;SDS011;25564;53.312;9.790;2023-07-28T06:22:38;4.10;;;2.53;;
39890;SDS011;25564;53.312;9.790;2023-07-28T06:25:09;4.35;;;2.60;;
39890;SDS011;25564;53.312;9.790;2023-07-28T06:27:41;5.25;;;2.70;;
39890;SDS011;25564;53.312;9.790;2023-07-28T06:30:14;4.18;;;2.78;;
39890;SDS011;25564;53.312;9.790;2023-07-28T06:32:45;6.28;;;3.58;;
39890;SDS011;25564;53.312;9.790;2023-07-28T06:35:16;4.60;;;2.35;;
39890;SDS011;25564;53.312;9.790;2023-07-28T06:37:48;4.47;;;2.63;;
39890;SDS011;25564;53.312;9.790;2023-07-28T06:40:20;6.78;;;3.13;;
39890;SDS011;25564;53.312;9.790;2023-07-28T06:42:51;4.78;;;2.85;;
39890;SDS011;25564;53.312;9.790;2023-07-28T06:45:23;4.47;;;2.60;;
39890;SDS011;25564;53.312;9.790;2023-07-28T06:47:54;3.50;;;2.20;;
39890;SDS011;25564;53.312;9.790;2023-07-28T06:50:25;3.50;;;2.20;;
39890;SDS011;25564;53.312;9.790;2023-07-28T06:52:57;4.47;;;2.50;;
39890;SDS011;25564;53.312;9.790;2023-07-28T06:55:29;3.22;;;2.50;;
39890;SDS011;25564;53.312;9.790;2023-07-28T06:58:00;3.92;;;2.35;;
39890;SDS011;25564;53.312;9.790;2023-07-28T07:00:32;5.10;;;2.60;;
39890;SDS011;25564;53.312;9.790;2023-07-28T07:03:04;4.30;;;2.63;;
39890;SDS011;25564;53.312;9.790;2023-07-28T07:05:36;4.45;;;2.47;;
39890;SDS011;25564;53.312;9.790;2023-07-28T07:08:09;5.75;;;2.40;;
39890;SDS011;25564;53.312;9.790;2023-07-28T07:10:40;3.40;;;2.05;;
39890;SDS011;25564;53.312;9.790;2023-07-28T07:13:18;3.35;;;2.10;;
39890;SDS011;25564;53.312;9.790;2023-07-28T07:15:50;3.50;;;2.10;;
39890;SDS011;25564;53.312;9.790;2023-07-28T07:18:22;3.38;;;2.17;;
39890;SDS011;25564;53.312;9.790;2023-07-28T07:20:53;3.95;;;2.20;;
39890;SDS011;25564;53.312;9.790;2023-07-28T07:23:25;3.42;;;1.92;;
39890;SDS011;25564;53.312;9.790;2023-07-28T07:25:57;4.75;;;2.78;;
39890;SDS011;25564;53.312;9.790;2023-07-28T07:28:28;3.67;;;2.60;;
39890;SDS011;25564;53.312;9.790;2023-07-28T07:31:00;2.90;;;2.13;;
39890;SDS011;25564;53.312;9.790;2023-07-28T07:33:31;4.22;;;2.15;;
39890;SDS011;25564;53.312;9.790;2023-07-28T07:36:03;4.50;;;1.95;;
39890;SDS011;25564;53.312;9.790;2023-07-28T07:38:34;3.45;;;1.80;;
39890;SDS011;25564;53.312;9.790;2023-07-28T07:41:06;2.38;;;1.60;;
39890;SDS011;25564;53.312;9.790;2023-07-28T07:43:40;5.30;;;1.83;;
39890;SDS011;25564;53.312;9.790;2023-07-28T07:46:11;3.72;;;1.90;;
39890;SDS011;25564;53.312;9.790;2023-07-28T07:48:43;2.67;;;1.50;;
39890;SDS011;25564;53.312;9.790;2023-07-28T07:51:15;3.75;;;2.05;;
39890;SDS011;25564;53.312;9.790;2023-07-28T07:53:46;2.65;;;1.90;;
39890;SDS011;25564;53.312;9.790;2023-07-28T07:56:18;2.70;;;1.60;;
39890;SDS011;25564;53.312;9.790;2023-07-28T07:58:49;2.90;;;1.73;;
39890;SDS011;25564;53.312;9.790;2023-07-28T08:01:22;2.88;;;1.70;;
39890;SDS011;25564;53.312;9.790;2023-07-28T08:03:54;2.75;;;1.48;;
39890;SDS011;25564;53.312;9.790;2023-07-28T08:06:25;1.92;;;1.45;;
39890;SDS011;25564;53.312;9.790;2023-07-28T08:08:58;3.05;;;1.65;;
39890;SDS011;25564;53.312;9.790;2023-07-28T08:11:30;3.00;;;2.05;;
39890;SDS011;25564;53.312;9.790;2023-07-28T08:14:02;2.47;;;1.88;;
39890;SDS011;25564;53.312;9.790;2023-07-28T08:16:34;3.25;;;1.65;;
39890;SDS011;25564;53.312;9.790;2023-07-28T08:19:05;2.95;;;2.17;;
39890;SDS011;25564;53.312;9.790;2023-07-28T08:21:37;3.58;;;2.22;;
39890;SDS011;25564;53.312;9.790;2023-07-28T08:24:08;3.67;;;2.17;;
39890;SDS011;25564;53.312;9.790;2023-07-28T08:26:40;3.80;;;2.53;;
39890;SDS011;25564;53.312;9.790;2023-07-28T08:29:12;3.28;;;2.20;;
39890;SDS011;25564;53.312;9.790;2023-07-28T08:31:43;3.30;;;2.38;;
39890;SDS011;25564;53.312;9.790;2023-07-28T08:34:15;4.28;;;2.60;;
39890;SDS011;25564;53.312;9.790;2023-07-28T08:36:48;3.13;;;2.10;;
39890;SDS011;25564;53.312;9.790;2023-07-28T08:39:20;3.72;;;2.40;;
39890;SDS011;25564;53.312;9.790;2023-07-28T08:41:58;4.63;;;2.63;;
39890;SDS011;25564;53.312;9.790;2023-07-28T08:44:31;3.55;;;2.28;;
39890;SDS011;25564;53.312;9.790;2023-07-28T08:47:04;4.97;;;2.63;;
39890;SDS011;25564;53.312;9.790;2023-07-28T08:49:36;3.60;;;2.10;;
39890;SDS011;25564;53.312;9.790;2023-07-28T08:52:08;3.60;;;2.00;;
39890;SDS011;25564;53.312;9.790;2023-07-28T08:54:39;3.75;;;2.28;;
39890;SDS011;25564;53.312;9.790;2023-07-28T08:57:11;3.72;;;2.15;;
39890;SDS011;25564;53.312;9.790;2023-07-28T08:59:42;3.78;;;2.10;;
39890;SDS011;25564;53.312;9.790;2023-07-28T09:02:18;3.90;;;2.22;;
39890;SDS011;25564;53.312;9.790;2023-07-28T09:04:51;3.45;;;2.10;;
39890;SDS011;25564;53.312;9.790;2023-07-28T09:07:22;2.83;;;1.83;;
39890;SDS011;25564;53.312;9.790;2023-07-28T09:09:58;2.58;;;1.90;;
39890;SDS011;25564;53.312;9.790;2023-07-28T09:12:32;3.22;;;1.90;;
39890;SDS011;25564;53.312;9.790;2023-07-28T09:15:04;2.30;;;1.52;;
39890;SDS011;25564;53.312;9.790;2023-07-28T09:17:41;2.55;;;1.88;;
39890;SDS011;25564;53.312;9.790;2023-07-28T09:20:15;2.90;;;1.92;;
39890;SDS011;25564;53.312;9.790;2023-07-28T09:22:47;3.97;;;1.67;;
39890;SDS011;25564;53.312;9.790;2023-07-28T09:25:21;2.33;;;1.50;;
39890;SDS011;25564;53.312;9.790;2023-07-28T09:27:53;2.65;;;1.58;;
39890;SDS011;25564;53.312;9.790;2023-07-28T09:30:24;2.13;;;1.60;;
39890;SDS011;25564;53.312;9.790;2023-07-28T09:32:57;1.83;;;1.17;;
39890;SDS011;25564;53.312;9.790;2023-07-28T09:35:28;2.55;;;1.58;;
39890;SDS011;25564;53.312;9.790;2023-07-28T09:38:00;3.05;;;1.52;;
39890;SDS011;25564;53.312;9.790;2023-07-28T09:40:32;2.13;;;1.30;;
39890;SDS011;25564;53.312;9.790;2023-07-28T09:43:04;2.15;;;1.50;;
39890;SDS011;25564;53.312;9.790;2023-07-28T09:45:35;3.35;;;1.40;;
39890;SDS011;25564;53.312;9.790;2023-07-28T09:48:09;1.40;;;1.08;;
39890;SDS011;25564;53.312;9.790;2023-07-28T09:50:41;1.65;;;1.20;;
39890;SDS011;25564;53.312;9.790;2023-07-28T09:53:13;2.15;;;1.23;;
39890;SDS011;25564;53.312;9.790;2023-07-28T09:55:45;1.95;;;1.42;;
39890;SDS011;25564;53.312;9.790;2023-07-28T09:58:20;2.47;;;1.40;;
39890;SDS011;25564;53.312;9.790;2023-07-28T10:00:54;1.92;;;1.60;;
39890;SDS011;25564;53.312;9.790;2023-07-28T10:03:26;1.73;;;1.30;;
39890;SDS011;25564;53.312;9.790;2023-07-28T10:06:01;1.45;;;1.15;;
39890;SDS011;25564;53.312;9.790;2023-07-28T10:08:32;1.77;;;1.30;;
39890;SDS011;25564;53.312;9.790;2023-07-28T10:11:04;2.63;;;1.60;;
39890;SDS011;25564;53.312;9.790;2023-07-28T10:13:39;2.47;;;1.40;;
39890;SDS011;25564;53.312;9.790;2023-07-28T10:16:13;2.45;;;1.60;;
39890;SDS011;25564;53.312;9.790;2023-07-28T10:18:54;2.60;;;1.50;;
39890;SDS011;25564;53.312;9.790;2023-07-28T10:21:27;2.13;;;1.63;;
39890;SDS011;25564;53.312;9.790;2023-07-28T10:24:00;2.20;;;1.60;;
39890;SDS011;25564;53.312;9.790;2023-07-28T10:26:35;1.80;;;1.27;;
39890;SDS011;25564;53.312;9.790;2023-07-28T10:29:12;2.58;;;1.40;;
39890;SDS011;25564;53.312;9.790;2023-07-28T10:31:50;4.32;;;1.60;;
39890;SDS011;25564;53.312;9.790;2023-07-28T10:34:24;2.80;;;1.23;;
39890;SDS011;25564;53.312;9.790;2023-07-28T10:36:58;3.67;;;1.60;;
39890;SDS011;25564;53.312;9.790;2023-07-28T10:39:31;2.90;;;2.03;;
39890;SDS011;25564;53.312;9.790;2023-07-28T10:42:08;2.35;;;1.45;;
39890;SDS011;25564;53.312;9.790;2023-07-28T10:44:40;2.20;;;1.40;;
39890;SDS011;25564;53.312;9.790;2023-07-28T10:47:12;3.22;;;2.05;;
39890;SDS011;25564;53.312;9.790;2023-07-28T10:49:46;3.28;;;2.17;;
39890;SDS011;25564;53.312;9.790;2023-07-28T10:52:18;3.72;;;2.15;;
39890;SDS011;25564;53.312;9.790;2023-07-28T10:54:50;3.95;;;2.15;;
39890;SDS011;25564;53.312;9.790;2023-07-28T10:57:21;4.65;;;2.30;;
39890;SDS011;25564;53.312;9.790;2023-07-28T10:59:53;3.65;;;2.47;;
39890;SDS011;25564;53.312;9.790;2023-07-28T11:02:25;3.90;;;2.58;;
39890;SDS011;25564;53.312;9.790;2023-07-28T11:04:58;4.22;;;2.72;;
39890;SDS011;25564;53.312;9.790;2023-07-28T11:07:30;4.32;;;2.50;;
39890;SDS011;25564;53.312;9.790;2023-07-28T11:10:01;3.88;;;2.10;;
39890;SDS011;25564;53.312;9.790;2023-07-28T11:12:34;4.90;;;2.28;;
39890;SDS011;25564;53.312;9.790;2023-07-28T11:15:06;3.17;;;2.05;;
39890;SDS011;25564;53.312;9.790;2023-07-28T11:20:17;3.38;;;1.95;;
39890;SDS011;25564;53.312;9.790;2023-07-28T11:22:54;2.78;;;1.80;;
39890;SDS011;25564;53.312;9.790;2023-07-28T11:25:32;3.47;;;2.03;;
39890;SDS011;25564;53.312;9.790;2023-07-28T11:28:04;4.72;;;2.20;;
39890;SDS011;25564;53.312;9.790;2023-07-28T11:30:37;2.58;;;1.63;;
39890;SDS011;25564;53.312;9.790;2023-07-28T11:33:10;3.75;;;2.25;;
39890;SDS011;25564;53.312;9.790;2023-07-28T11:35:45;4.47;;;2.60;;
39890;SDS011;25564;53.312;9.790;2023-07-28T11:38:17;3.42;;;1.88;;
39890;SDS011;25564;53.312;9.790;2023-07-28T11:40:49;3.35;;;1.98;;
39890;SDS011;25564;53.312;9.790;2023-07-28T11:43:22;2.35;;;1.63;;
39890;SDS011;25564;53.312;9.790;2023-07-28T11:45:54;2.55;;;1.70;;
39890;SDS011;25564;53.312;9.790;2023-07-28T11:48:29;2.40;;;1.80;;
39890;SDS011;25564;53.312;9.790;2023-07-28T11:51:02;4.35;;;1.90;;
39890;SDS011;25564;53.312;9.790;2023-07-28T11:53:34;3.00;;;2.00;;
39890;SDS011;25564;53.312;9.790;2023-07-28T11:56:05;4.00;;;1.90;;
39890;SDS011;25564;53.312;9.790;2023-07-28T11:58:37;4.05;;;1.98;;
39890;SDS011;25564;53.312;9.790;2023-07-28T12:01:08;3.35;;;2.10;;
39890;SDS011;25564;53.312;9.790;2023-07-28T12:03:40;4.43;;;1.77;;
39890;SDS011;25564;53.312;9.790;2023-07-28T12:06:12;4.85;;;2.20;;
39890;SDS011;25564;53.312;9.790;2023-07-28T12:09:04;3.20;;;2.00;;
39890;SDS011;25564;53.312;9.790;2023-07-28T12:11:43;2.85;;;1.98;;
39890;SDS011;25564;53.312;9.790;2023-07-28T12:14:30;5.75;;;2.30;;
39890;SDS011;25564;53.312;9.790;2023-07-28T12:17:14;4.70;;;3.20;;
39890;SDS011;25564;53.312;9.790;2023-07-28T12:22:31;5.90;;;2.60;;
39890;SDS011;25564;53.312;9.790;2023-07-28T12:25:02;3.15;;;2.20;;
39890;SDS011;25564;53.312;9.790;2023-07-28T12:27:35;5.05;;;2.72;;
39890;SDS011;25564;53.312;9.790;2023-07-28T12:30:07;4.63;;;2.10;;
39890;SDS011;25564;53.312;9.790;2023-07-28T12:32:47;4.93;;;2.75;;
39890;SDS011;25564;53.312;9.790;2023-07-28T12:35:22;3.70;;;2.10;;
39890;SDS011;25564;53.312;9.790;2023-07-28T12:38:14;4.50;;;2.30;;
39890;SDS011;25564;53.312;9.790;2023-07-28T12:40:49;2.40;;;1.80;;
39890;SDS011;25564;53.312;9.790;2023-07-28T12:43:23;5.07;;;1.88;;
39890;SDS011;25564;53.312;9.790;2023-07-28T12:46:00;2.72;;;1.67;;
39890;SDS011;25564;53.312;9.790;2023-07-28T12:48:34;3.30;;;2.10;;
39890;SDS011;25564;53.312;9.790;2023-07-28T12:51:17;3.15;;;2.05;;
39890;SDS011;25564;53.312;9.790;2023-07-28T12:53:52;3.85;;;2.20;;
39890;SDS011;25564;53.312;9.790;2023-07-28T12:56:23;3.75;;;2.08;;
39890;SDS011;25564;53.312;9.790;2023-07-28T12:58:58;2.22;;;1.42;;
39890;SDS011;25564;53.312;9.790;2023-07-28T13:01:34;2.88;;;1.70;;
39890;SDS011;25564;53.312;9.790;2023-07-28T13:04:06;2.45;;;1.40;;
39890;SDS011;25564;53.312;9.790;2023-07-28T13:06:38;3.47;;;1.30;;
39890;SDS011;25564;53.312;9.790;2023-07-28T13:09:12;2.17;;;1.20;;
39890;SDS011;25564;53.312;9.790;2023-07-28T13:11:46;1.95;;;1.27;;
39890;SDS011;25564;53.312;9.790;2023-07-28T13:14:21;2.20;;;1.20;;
39890;SDS011;25564;53.312;9.790;2023-07-28T13:16:52;1.95;;;1.40;;
39890;SDS011;25564;53.312;9.790;2023-07-28T13:19:24;2.75;;;1.70;;
39890;SDS011;25564;53.312;9.790;2023-07-28T13:21:55;4.05;;;2.13;;
39890;SDS011;25564;53.312;9.790;2023-07-28T13:24:27;3.88;;;1.60;;
39890;SDS011;25564;53.312;9.790;2023-07-28T13:26:58;1.50;;;1.02;;
39890;SDS011;25564;53.312;9.790;2023-07-28T13:29:30;1.80;;;1.02;;
39890;SDS011;25564;53.312;9.790;2023-07-28T13:32:01;1.85;;;1.17;;
39890;SDS011;25564;53.312;9.790;2023-07-28T13:34:33;3.72;;;1.33;;
39890;SDS011;25564;53.312;9.790;2023-07-28T13:37:04;3.67;;;1.38;;
39890;SDS011;25564;53.312;9.790;2023-07-28T13:39:36;3.17;;;1.80;;
39890;SDS011;25564;53.312;9.790;2023-07-28T13:42:07;1.55;;;1.02;;
39890;SDS011;25564;53.312;9.790;2023-07-28T13:44:39;2.17;;;1.30;;
39890;SDS011;25564;53.312;9.790;2023-07-28T13:47:17;2.17;;;1.10;;
39890;SDS011;25564;53.312;9.790;2023-07-28T13:49:49;2.35;;;1.52;;
39890;SDS011;25564;53.312;9.790;2023-07-28T13:52:22;2.60;;;1.30;;
39890;SDS011;25564;53.312;9.790;2023-07-28T13:54:54;2.08;;;1.30;;
39890;SDS011;25564;53.312;9.790;2023-07-28T13:57:28;3.33;;;1.95;;
39890;SDS011;25564;53.312;9.790;2023-07-28T13:59:59;2.97;;;1.48;;
39890;SDS011;25564;53.312;9.790;2023-07-28T14:02:31;1.90;;;1.45;;
39890;SDS011;25564;53.312;9.790;2023-07-28T14:05:03;1.75;;;1.20;;
39890;SDS011;25564;53.312;9.790;2023-07-28T14:07:34;2.25;;;1.10;;
39890;SDS011;25564;53.312;9.790;2023-07-28T14:10:06;1.65;;;1.20;;
39890;SDS011;25564;53.312;9.790;2023-07-28T14:12:38;1.58;;;0.95;;
39890;SDS011;25564;53.312;9.790;2023-07-28T14:15:09;2.17;;;1.30;;
39890;SDS011;25564;53.312;9.790;2023-07-28T14:17:41;2.88;;;1.20;;
39890;SDS011;25564;53.312;9.790;2023-07-28T14:20:12;2.05;;;0.80;;
39890;SDS011;25564;53.312;9.790;2023-07-28T14:22:43;2.78;;;0.98;;
39890;SDS011;25564;53.312;9.790;2023-07-28T14:25:15;1.13;;;0.90;;
39890;SDS011;25564;53.312;9.790;2023-07-28T14:27:46;1.85;;;0.88;;
39890;SDS011;25564;53.312;9.790;2023-07-28T14:30:18;2.70;;;1.08;;
39890;SDS011;25564;53.312;9.790;2023-07-28T14:32:49;1.30;;;0.70;;
39890;SDS011;25564;53.312;9.790;2023-07-28T14:35:21;2.25;;;0.65;;
39890;SDS011;25564;53.312;9.790;2023-07-28T14:37:52;1.48;;;0.80;;
39890;SDS011;25564;53.312;9.790;2023-07-28T14:40:24;1.33;;;1.05;;
39890;SDS011;25564;53.312;9.790;2023-07-28T14:42:55;0.77;;;0.60;;
39890;SDS011;25564;53.312;9.790;2023-07-28T14:45:27;1.73;;;0.73;;
39890;SDS011;25564;53.312;9.790;2023-07-28T14:47:58;1.55;;;0.93;;
39890;SDS011;25564;53.312;9.790;2023-07-28T14:50:29;1.30;;;1.00;;
39890;SDS011;25564;53.312;9.790;2023-07-28T14:53:01;2.72;;;0.93;;
39890;SDS011;25564;53.312;9.790;2023-07-28T14:55:32;1.02;;;0.80;;
39890;SDS011;25564;53.312;9.790;2023-07-28T14:58:04;2.13;;;0.90;;
39890;SDS011;25564;53.312;9.790;2023-07-28T15:00:35;3.58;;;1.00;;
39890;SDS011;25564;53.312;9.790;2023-07-28T15:03:07;1.90;;;0.90;;
39890;SDS011;25564;53.312;9.790;2023-07-28T15:05:38;1.25;;;0.65;;
39890;SDS011;25564;53.312;9.790;2023-07-28T15:08:10;1.08;;;0.90;;
39890;SDS011;25564;53.312;9.790;2023-07-28T15:10:43;1.75;;;0.80;;
39890;SDS011;25564;53.312;9.790;2023-07-28T15:13:14;2.15;;;0.88;;
39890;SDS011;25564;53.312;9.790;2023-07-28T15:15:45;3.45;;;1.00;;
39890;SDS011;25564;53.312;9.790;2023-07-28T15:18:18;1.58;;;0.93;;
39890;SDS011;25564;53.312;9.790;2023-07-28T15:20:49;1.50;;;0.95;;
39890;SDS011;25564;53.312;9.790;2023-07-28T15:23:22;1.60;;;1.00;;
39890;SDS011;25564;53.312;9.790;2023-07-28T15:25:53;1.40;;;0.77;;
39890;SDS011;25564;53.312;9.790;2023-07-28T15:28:28;1.70;;;1.10;;